sensor_id;sensor_type;location;lat;lon;timestamp;temperature;humidity
81895;DHT22;71358;45.642;13.758;2023-07-09T00:00:47;27.90;56.90
81895;DHT22;71358;45.642;13.758;2023-07-09T00:03:14;27.90;56.80
81895;DHT22;71358;45.642;13.758;2023-07-09T00:05:41;27.90;56.60
81895;DHT22;71358;45.642;13.758;2023-07-09T00:08:28;27.90;56.50
81895;DHT22;71358;45.642;13.758;2023-07-09T00:10:55;27.90;56.30
81895;DHT22;71358;45.642;13.758;2023-07-09T00:13:22;27.90;56.10
81895;DHT22;71358;45.642;13.758;2023-07-09T00:15:49;27.90;55.90
81895;DHT22;71358;45.642;13.758;2023-07-09T00:18:15;27.80;55.70
81895;DHT22;71358;45.642;13.758;2023-07-09T00:20:41;27.80;55.50
81895;DHT22;71358;45.642;13.758;2023-07-09T00:23:11;27.80;55.30
81895;DHT22;71358;45.642;13.758;2023-07-09T00:25:44;27.80;55.30
81895;DHT22;71358;45.642;13.758;2023-07-09T00:28:15;27.80;55.20
81895;DHT22;71358;45.642;13.758;2023-07-09T00:30:41;27.90;55.20
81895;DHT22;71358;45.642;13.758;2023-07-09T00:33:11;27.80;55.10
81895;DHT22;71358;45.642;13.758;2023-07-09T00:35:39;27.80;55.00
81895;DHT22;71358;45.642;13.758;2023-07-09T00:38:12;27.90;55.00
81895;DHT22;71358;45.642;13.758;2023-07-09T00:40:38;27.80;54.90
81895;DHT22;71358;45.642;13.758;2023-07-09T00:43:10;27.80;54.80
81895;DHT22;71358;45.642;13.758;2023-07-09T00:45:40;27.80;54.80
81895;DHT22;71358;45.642;13.758;2023-07-09T00:48:12;27.80;54.70
81895;DHT22;71358;45.642;13.758;2023-07-09T00:50:45;27.80;54.70
81895;DHT22;71358;45.642;13.758;2023-07-09T00:53:20;27.80;54.70
81895;DHT22;71358;45.642;13.758;2023-07-09T00:56:01;27.80;54.70
81895;DHT22;71358;45.642;13.758;2023-07-09T00:58:29;27.80;54.60
81895;DHT22;71358;45.642;13.758;2023-07-09T01:01:08;27.80;54.70
81895;DHT22;71358;45.642;13.758;2023-07-09T01:03:42;27.80;54.70
81895;DHT22;71358;45.642;13.758;2023-07-09T01:06:09;27.80;54.70
81895;DHT22;71358;45.642;13.758;2023-07-09T01:08:39;27.80;54.70
81895;DHT22;71358;45.642;13.758;2023-07-09T01:11:17;27.80;54.80
81895;DHT22;71358;45.642;13.758;2023-07-09T01:14:00;27.80;54.80
81895;DHT22;71358;45.642;13.758;2023-07-09T01:16:30;27.80;55.50
81895;DHT22;71358;45.642;13.758;2023-07-09T01:18:57;27.80;54.90
81895;DHT22;71358;45.642;13.758;2023-07-09T01:21:23;27.80;54.90
81895;DHT22;71358;45.642;13.758;2023-07-09T01:23:49;27.80;54.90
81895;DHT22;71358;45.642;13.758;2023-07-09T01:26:19;27.80;54.90
81895;DHT22;71358;45.642;13.758;2023-07-09T01:28:45;27.80;54.80
81895;DHT22;71358;45.642;13.758;2023-07-09T01:31:12;27.80;54.80
81895;DHT22;71358;45.642;13.758;2023-07-09T01:33:39;27.80;54.80
81895;DHT22;71358;45.642;13.758;2023-07-09T01:36:08;27.80;54.70
81895;DHT22;71358;45.642;13.758;2023-07-09T01:38:34;27.80;54.70
81895;DHT22;71358;45.642;13.758;2023-07-09T01:41:01;27.80;54.60
81895;DHT22;71358;45.642;13.758;2023-07-09T01:43:27;27.80;54.60
81895;DHT22;71358;45.642;13.758;2023-07-09T01:45:53;27.80;54.50
81895;DHT22;71358;45.642;13.758;2023-07-09T01:48:24;27.80;54.40
81895;DHT22;71358;45.642;13.758;2023-07-09T01:50:51;27.80;54.40
81895;DHT22;71358;45.642;13.758;2023-07-09T01:53:23;27.80;54.40
81895;DHT22;71358;45.642;13.758;2023-07-09T01:55:51;27.80;54.40
81895;DHT22;71358;45.642;13.758;2023-07-09T01:58:18;27.80;54.40
81895;DHT22;71358;45.642;13.758;2023-07-09T02:00:43;27.80;54.40
81895;DHT22;71358;45.642;13.758;2023-07-09T02:03:11;27.80;54.40
81895;DHT22;71358;45.642;13.758;2023-07-09T02:05:37;27.80;54.40
81895;DHT22;71358;45.642;13.758;2023-07-09T02:08:03;27.80;54.40
81895;DHT22;71358;45.642;13.758;2023-07-09T02:10:29;27.80;54.40
81895;DHT22;71358;45.642;13.758;2023-07-09T02:12:54;27.80;54.40
81895;DHT22;71358;45.642;13.758;2023-07-09T02:15:21;27.80;54.40
81895;DHT22;71358;45.642;13.758;2023-07-09T02:17:46;27.80;54.40
81895;DHT22;71358;45.642;13.758;2023-07-09T02:20:13;27.80;54.40
81895;DHT22;71358;45.642;13.758;2023-07-09T02:22:42;27.80;54.40
81895;DHT22;71358;45.642;13.758;2023-07-09T02:25:08;27.80;54.50
81895;DHT22;71358;45.642;13.758;2023-07-09T02:27:35;27.80;54.50
81895;DHT22;71358;45.642;13.758;2023-07-09T02:30:01;27.80;54.60
81895;DHT22;71358;45.642;13.758;2023-07-09T02:32:28;27.80;54.50
81895;DHT22;71358;45.642;13.758;2023-07-09T02:34:54;27.80;54.50
81895;DHT22;71358;45.642;13.758;2023-07-09T02:37:22;27.80;54.50
81895;DHT22;71358;45.642;13.758;2023-07-09T02:39:48;27.80;54.50
81895;DHT22;71358;45.642;13.758;2023-07-09T02:42:16;27.80;54.50
81895;DHT22;71358;45.642;13.758;2023-07-09T02:44:43;27.80;54.50
81895;DHT22;71358;45.642;13.758;2023-07-09T02:47:09;27.80;54.40
81895;DHT22;71358;45.642;13.758;2023-07-09T02:49:35;27.80;54.40
81895;DHT22;71358;45.642;13.758;2023-07-09T02:52:01;27.80;54.40
81895;DHT22;71358;45.642;13.758;2023-07-09T02:54:27;27.80;54.40
81895;DHT22;71358;45.642;13.758;2023-07-09T02:56:53;27.80;54.40
81895;DHT22;71358;45.642;13.758;2023-07-09T02:59:19;27.80;54.40
81895;DHT22;71358;45.642;13.758;2023-07-09T03:01:45;27.80;54.40
81895;DHT22;71358;45.642;13.758;2023-07-09T03:04:13;27.80;54.40
81895;DHT22;71358;45.642;13.758;2023-07-09T03:06:39;27.70;54.30
81895;DHT22;71358;45.642;13.758;2023-07-09T03:09:06;27.80;54.40
81895;DHT22;71358;45.642;13.758;2023-07-09T03:11:33;27.70;54.40
81895;DHT22;71358;45.642;13.758;2023-07-09T03:13:59;27.80;54.40
81895;DHT22;71358;45.642;13.758;2023-07-09T03:16:31;27.70;54.40
81895;DHT22;71358;45.642;13.758;2023-07-09T03:18:57;27.80;54.40
81895;DHT22;71358;45.642;13.758;2023-07-09T03:21:25;27.80;54.40
81895;DHT22;71358;45.642;13.758;2023-07-09T03:23:52;27.80;54.30
81895;DHT22;71358;45.642;13.758;2023-07-09T03:26:18;27.70;54.20
81895;DHT22;71358;45.642;13.758;2023-07-09T03:28:44;27.70;54.20
81895;DHT22;71358;45.642;13.758;2023-07-09T03:31:09;27.70;54.20
81895;DHT22;71358;45.642;13.758;2023-07-09T03:33:35;27.70;54.10
81895;DHT22;71358;45.642;13.758;2023-07-09T03:36:01;27.70;54.10
81895;DHT22;71358;45.642;13.758;2023-07-09T03:38:30;27.70;54.00
81895;DHT22;71358;45.642;13.758;2023-07-09T03:40:56;27.70;54.00
81895;DHT22;71358;45.642;13.758;2023-07-09T03:43:22;27.70;53.90
81895;DHT22;71358;45.642;13.758;2023-07-09T03:45:49;27.70;53.90
81895;DHT22;71358;45.642;13.758;2023-07-09T03:48:16;27.70;53.90
81895;DHT22;71358;45.642;13.758;2023-07-09T03:50:44;27.70;53.90
81895;DHT22;71358;45.642;13.758;2023-07-09T03:53:10;27.70;54.00
81895;DHT22;71358;45.642;13.758;2023-07-09T03:55:36;27.70;54.00
81895;DHT22;71358;45.642;13.758;2023-07-09T03:58:03;27.70;54.10
81895;DHT22;71358;45.642;13.758;2023-07-09T04:00:29;27.70;54.10
81895;DHT22;71358;45.642;13.758;2023-07-09T04:02:55;27.70;54.20
81895;DHT22;71358;45.642;13.758;2023-07-09T04:05:23;27.70;54.00
81895;DHT22;71358;45.642;13.758;2023-07-09T04:07:49;27.70;53.90
81895;DHT22;71358;45.642;13.758;2023-07-09T04:10:15;27.70;53.80
81895;DHT22;71358;45.642;13.758;2023-07-09T04:12:41;27.70;53.60
81895;DHT22;71358;45.642;13.758;2023-07-09T04:15:07;27.60;54.00
81895;DHT22;71358;45.642;13.758;2023-07-09T04:17:33;27.30;54.80
81895;DHT22;71358;45.642;13.758;2023-07-09T04:19:58;27.10;55.30
81895;DHT22;71358;45.642;13.758;2023-07-09T04:22:24;26.90;55.60
81895;DHT22;71358;45.642;13.758;2023-07-09T04:24:50;27.00;56.30
81895;DHT22;71358;45.642;13.758;2023-07-09T04:27:18;27.00;56.00
81895;DHT22;71358;45.642;13.758;2023-07-09T04:29:43;27.10;56.00
81895;DHT22;71358;45.642;13.758;2023-07-09T04:32:13;27.10;55.90
81895;DHT22;71358;45.642;13.758;2023-07-09T04:34:39;27.10;55.90
81895;DHT22;71358;45.642;13.758;2023-07-09T04:37:07;27.10;55.60
81895;DHT22;71358;45.642;13.758;2023-07-09T04:39:33;27.10;55.50
81895;DHT22;71358;45.642;13.758;2023-07-09T04:41:59;27.10;55.40
81895;DHT22;71358;45.642;13.758;2023-07-09T04:44:25;27.10;55.40
81895;DHT22;71358;45.642;13.758;2023-07-09T04:46:50;27.20;55.50
81895;DHT22;71358;45.642;13.758;2023-07-09T04:49:16;27.20;55.50
81895;DHT22;71358;45.642;13.758;2023-07-09T04:51:42;27.20;55.50
81895;DHT22;71358;45.642;13.758;2023-07-09T04:54:07;27.20;55.40
81895;DHT22;71358;45.642;13.758;2023-07-09T04:56:33;27.20;55.40
81895;DHT22;71358;45.642;13.758;2023-07-09T04:58:59;27.20;55.40
81895;DHT22;71358;45.642;13.758;2023-07-09T05:01:25;27.20;55.40
81895;DHT22;71358;45.642;13.758;2023-07-09T05:03:50;27.20;55.50
81895;DHT22;71358;45.642;13.758;2023-07-09T05:06:16;27.20;55.50
81895;DHT22;71358;45.642;13.758;2023-07-09T05:08:42;27.20;55.50
81895;DHT22;71358;45.642;13.758;2023-07-09T05:11:08;27.20;55.50
81895;DHT22;71358;45.642;13.758;2023-07-09T05:13:36;27.20;55.60
81895;DHT22;71358;45.642;13.758;2023-07-09T05:16:02;27.20;55.70
81895;DHT22;71358;45.642;13.758;2023-07-09T05:18:28;27.20;55.80
81895;DHT22;71358;45.642;13.758;2023-07-09T05:20:55;27.20;55.70
81895;DHT22;71358;45.642;13.758;2023-07-09T05:23:21;27.20;55.70
81895;DHT22;71358;45.642;13.758;2023-07-09T05:25:47;27.20;55.70
81895;DHT22;71358;45.642;13.758;2023-07-09T05:28:12;27.20;55.80
81895;DHT22;71358;45.642;13.758;2023-07-09T05:30:41;27.20;55.80
81895;DHT22;71358;45.642;13.758;2023-07-09T05:33:07;27.20;55.90
81895;DHT22;71358;45.642;13.758;2023-07-09T05:35:33;27.20;55.90
81895;DHT22;71358;45.642;13.758;2023-07-09T05:37:59;27.20;56.00
81895;DHT22;71358;45.642;13.758;2023-07-09T05:40:24;27.20;56.10
81895;DHT22;71358;45.642;13.758;2023-07-09T05:42:50;27.20;56.00
81895;DHT22;71358;45.642;13.758;2023-07-09T05:45:16;27.20;56.00
81895;DHT22;71358;45.642;13.758;2023-07-09T05:47:41;27.20;56.00
81895;DHT22;71358;45.642;13.758;2023-07-09T05:50:07;27.30;56.00
81895;DHT22;71358;45.642;13.758;2023-07-09T05:52:33;27.30;56.00
81895;DHT22;71358;45.642;13.758;2023-07-09T05:54:59;27.40;56.30
81895;DHT22;71358;45.642;13.758;2023-07-09T05:57:25;27.40;55.40
81895;DHT22;71358;45.642;13.758;2023-07-09T05:59:51;27.50;55.20
81895;DHT22;71358;45.642;13.758;2023-07-09T06:02:19;27.60;55.20
81895;DHT22;71358;45.642;13.758;2023-07-09T06:04:45;27.60;55.20
81895;DHT22;71358;45.642;13.758;2023-07-09T06:07:12;27.60;55.20
81895;DHT22;71358;45.642;13.758;2023-07-09T06:09:39;27.70;55.20
81895;DHT22;71358;45.642;13.758;2023-07-09T06:12:06;27.70;55.20
81895;DHT22;71358;45.642;13.758;2023-07-09T06:14:32;27.70;55.40
81895;DHT22;71358;45.642;13.758;2023-07-09T06:16:59;27.70;55.40
81895;DHT22;71358;45.642;13.758;2023-07-09T06:19:25;27.70;55.50
81895;DHT22;71358;45.642;13.758;2023-07-09T06:21:51;27.70;55.60
81895;DHT22;71358;45.642;13.758;2023-07-09T06:24:16;27.70;55.60
81895;DHT22;71358;45.642;13.758;2023-07-09T06:26:42;27.70;55.70
81895;DHT22;71358;45.642;13.758;2023-07-09T06:29:08;27.70;55.70
81895;DHT22;71358;45.642;13.758;2023-07-09T06:31:33;27.70;55.80
81895;DHT22;71358;45.642;13.758;2023-07-09T06:33:59;27.70;55.80
81895;DHT22;71358;45.642;13.758;2023-07-09T06:36:25;27.70;56.00
81895;DHT22;71358;45.642;13.758;2023-07-09T06:38:51;27.70;56.10
81895;DHT22;71358;45.642;13.758;2023-07-09T06:41:17;27.70;56.10
81895;DHT22;71358;45.642;13.758;2023-07-09T06:43:42;27.70;56.30
81895;DHT22;71358;45.642;13.758;2023-07-09T06:46:11;27.70;56.50
81895;DHT22;71358;45.642;13.758;2023-07-09T06:48:37;27.70;56.80
81895;DHT22;71358;45.642;13.758;2023-07-09T06:51:03;27.70;57.10
81895;DHT22;71358;45.642;13.758;2023-07-09T06:53:29;27.70;57.30
81895;DHT22;71358;45.642;13.758;2023-07-09T06:55:56;27.70;57.60
81895;DHT22;71358;45.642;13.758;2023-07-09T06:58:25;27.70;57.70
81895;DHT22;71358;45.642;13.758;2023-07-09T07:00:51;27.70;57.90
81895;DHT22;71358;45.642;13.758;2023-07-09T07:03:17;27.70;58.00
81895;DHT22;71358;45.642;13.758;2023-07-09T07:05:47;27.70;58.10
81895;DHT22;71358;45.642;13.758;2023-07-09T07:08:20;27.70;58.10
81895;DHT22;71358;45.642;13.758;2023-07-09T07:10:48;27.70;57.80
81895;DHT22;71358;45.642;13.758;2023-07-09T07:13:14;27.70;57.40
81895;DHT22;71358;45.642;13.758;2023-07-09T07:15:40;27.60;56.80
81895;DHT22;71358;45.642;13.758;2023-07-09T07:18:06;27.60;56.50
81895;DHT22;71358;45.642;13.758;2023-07-09T07:20:33;27.60;56.30
81895;DHT22;71358;45.642;13.758;2023-07-09T07:22:59;27.60;56.10
81895;DHT22;71358;45.642;13.758;2023-07-09T07:25:25;27.70;55.90
81895;DHT22;71358;45.642;13.758;2023-07-09T07:27:51;27.70;55.60
81895;DHT22;71358;45.642;13.758;2023-07-09T07:30:17;27.60;55.20
81895;DHT22;71358;45.642;13.758;2023-07-09T07:32:47;27.60;55.00
81895;DHT22;71358;45.642;13.758;2023-07-09T07:35:14;27.70;54.80
81895;DHT22;71358;45.642;13.758;2023-07-09T07:37:40;27.70;54.70
81895;DHT22;71358;45.642;13.758;2023-07-09T07:40:07;27.60;55.40
81895;DHT22;71358;45.642;13.758;2023-07-09T07:42:33;27.60;56.40
81895;DHT22;71358;45.642;13.758;2023-07-09T07:44:59;27.70;57.40
81895;DHT22;71358;45.642;13.758;2023-07-09T07:47:25;27.60;58.00
81895;DHT22;71358;45.642;13.758;2023-07-09T07:49:53;27.60;58.30
81895;DHT22;71358;45.642;13.758;2023-07-09T07:52:18;27.60;58.40
81895;DHT22;71358;45.642;13.758;2023-07-09T07:54:44;27.60;58.40
81895;DHT22;71358;45.642;13.758;2023-07-09T07:57:10;27.60;58.20
81895;DHT22;71358;45.642;13.758;2023-07-09T07:59:37;27.60;58.20
81895;DHT22;71358;45.642;13.758;2023-07-09T08:02:03;27.60;57.90
81895;DHT22;71358;45.642;13.758;2023-07-09T08:04:29;27.60;57.70
81895;DHT22;71358;45.642;13.758;2023-07-09T08:06:55;27.60;57.40
81895;DHT22;71358;45.642;13.758;2023-07-09T08:09:21;27.60;57.30
81895;DHT22;71358;45.642;13.758;2023-07-09T08:11:46;27.60;57.10
81895;DHT22;71358;45.642;13.758;2023-07-09T08:14:12;27.60;56.60
81895;DHT22;71358;45.642;13.758;2023-07-09T08:16:39;27.60;56.30
81895;DHT22;71358;45.642;13.758;2023-07-09T08:19:04;27.60;56.30
81895;DHT22;71358;45.642;13.758;2023-07-09T08:21:30;27.60;56.30
81895;DHT22;71358;45.642;13.758;2023-07-09T08:23:56;27.60;56.30
81895;DHT22;71358;45.642;13.758;2023-07-09T08:26:22;27.60;56.20
81895;DHT22;71358;45.642;13.758;2023-07-09T08:28:50;27.60;56.20
81895;DHT22;71358;45.642;13.758;2023-07-09T08:31:15;27.60;56.10
81895;DHT22;71358;45.642;13.758;2023-07-09T08:33:41;27.60;56.10
81895;DHT22;71358;45.642;13.758;2023-07-09T08:36:07;27.60;56.00
81895;DHT22;71358;45.642;13.758;2023-07-09T08:38:32;27.60;56.00
81895;DHT22;71358;45.642;13.758;2023-07-09T08:41:24;27.60;56.00
81895;DHT22;71358;45.642;13.758;2023-07-09T08:44:09;27.60;55.90
81895;DHT22;71358;45.642;13.758;2023-07-09T08:49:50;27.60;55.70
81895;DHT22;71358;45.642;13.758;2023-07-09T08:54:55;27.70;56.00
81895;DHT22;71358;45.642;13.758;2023-07-09T08:57:26;27.70;56.20
81895;DHT22;71358;45.642;13.758;2023-07-09T08:59:59;27.70;57.40
81895;DHT22;71358;45.642;13.758;2023-07-09T09:02:33;27.70;58.20
81895;DHT22;71358;45.642;13.758;2023-07-09T09:05:03;27.60;59.10
81895;DHT22;71358;45.642;13.758;2023-07-09T09:08:05;27.70;59.50
81895;DHT22;71358;45.642;13.758;2023-07-09T09:10:48;27.70;59.80
81895;DHT22;71358;45.642;13.758;2023-07-09T09:13:16;27.60;60.10
81895;DHT22;71358;45.642;13.758;2023-07-09T09:15:47;27.60;60.70
81895;DHT22;71358;45.642;13.758;2023-07-09T09:18:20;27.70;61.40
81895;DHT22;71358;45.642;13.758;2023-07-09T09:23:58;27.60;61.00
81895;DHT22;71358;45.642;13.758;2023-07-09T09:26:30;27.60;61.00
81895;DHT22;71358;45.642;13.758;2023-07-09T09:28:56;27.60;61.20
81895;DHT22;71358;45.642;13.758;2023-07-09T09:31:27;27.60;61.80
81895;DHT22;71358;45.642;13.758;2023-07-09T09:33:53;27.70;62.50
81895;DHT22;71358;45.642;13.758;2023-07-09T09:36:24;27.70;62.50
81895;DHT22;71358;45.642;13.758;2023-07-09T09:38:50;27.70;62.20
81895;DHT22;71358;45.642;13.758;2023-07-09T09:41:22;27.70;62.90
81895;DHT22;71358;45.642;13.758;2023-07-09T09:43:49;27.70;62.00
81895;DHT22;71358;45.642;13.758;2023-07-09T09:46:25;27.70;61.70
81895;DHT22;71358;45.642;13.758;2023-07-09T09:48:58;27.80;61.70
81895;DHT22;71358;45.642;13.758;2023-07-09T09:51:25;27.80;61.70
81895;DHT22;71358;45.642;13.758;2023-07-09T09:53:55;27.80;61.70
81895;DHT22;71358;45.642;13.758;2023-07-09T09:56:33;27.80;61.30
81895;DHT22;71358;45.642;13.758;2023-07-09T09:58:59;27.80;61.50
81895;DHT22;71358;45.642;13.758;2023-07-09T10:01:31;27.80;61.40
81895;DHT22;71358;45.642;13.758;2023-07-09T10:03:59;27.80;61.20
81895;DHT22;71358;45.642;13.758;2023-07-09T10:06:45;27.80;61.60
81895;DHT22;71358;45.642;13.758;2023-07-09T10:09:46;27.80;61.40
81895;DHT22;71358;45.642;13.758;2023-07-09T10:15:25;27.80;61.30
81895;DHT22;71358;45.642;13.758;2023-07-09T10:21:05;27.80;61.00
81895;DHT22;71358;45.642;13.758;2023-07-09T10:26:36;27.80;60.90
81895;DHT22;71358;45.642;13.758;2023-07-09T10:39:28;27.80;60.30
81895;DHT22;71358;45.642;13.758;2023-07-09T10:41:58;27.80;60.20
81895;DHT22;71358;45.642;13.758;2023-07-09T10:44:35;27.80;60.10
81895;DHT22;71358;45.642;13.758;2023-07-09T10:47:06;27.80;59.90
81895;DHT22;71358;45.642;13.758;2023-07-09T10:49:39;27.80;59.90
81895;DHT22;71358;45.642;13.758;2023-07-09T10:58:04;27.90;59.90
81895;DHT22;71358;45.642;13.758;2023-07-09T11:00:38;27.90;59.70
81895;DHT22;71358;45.642;13.758;2023-07-09T11:03:21;27.80;59.80
81895;DHT22;71358;45.642;13.758;2023-07-09T11:05:49;27.90;59.70
81895;DHT22;71358;45.642;13.758;2023-07-09T11:08:18;27.80;59.70
81895;DHT22;71358;45.642;13.758;2023-07-09T11:10:52;27.90;59.70
81895;DHT22;71358;45.642;13.758;2023-07-09T11:13:26;27.90;59.60
81895;DHT22;71358;45.642;13.758;2023-07-09T11:15:56;27.90;59.60
81895;DHT22;71358;45.642;13.758;2023-07-09T11:18:29;27.90;59.50
81895;DHT22;71358;45.642;13.758;2023-07-09T11:21:17;27.90;59.50
81895;DHT22;71358;45.642;13.758;2023-07-09T11:26:31;27.90;59.40
81895;DHT22;71358;45.642;13.758;2023-07-09T11:31:42;27.90;59.40
81895;DHT22;71358;45.642;13.758;2023-07-09T11:36:50;27.90;59.30
81895;DHT22;71358;45.642;13.758;2023-07-09T11:39:27;27.90;59.30
81895;DHT22;71358;45.642;13.758;2023-07-09T11:41:54;27.90;59.30
81895;DHT22;71358;45.642;13.758;2023-07-09T11:44:29;27.90;59.30
81895;DHT22;71358;45.642;13.758;2023-07-09T11:49:36;27.90;59.20
81895;DHT22;71358;45.642;13.758;2023-07-09T11:52:04;27.90;59.20
81895;DHT22;71358;45.642;13.758;2023-07-09T11:54:41;27.90;59.10
81895;DHT22;71358;45.642;13.758;2023-07-09T11:57:11;27.90;59.10
81895;DHT22;71358;45.642;13.758;2023-07-09T11:59:43;27.90;59.10
81895;DHT22;71358;45.642;13.758;2023-07-09T12:02:18;27.90;59.10
81895;DHT22;71358;45.642;13.758;2023-07-09T12:04:48;27.90;59.10
81895;DHT22;71358;45.642;13.758;2023-07-09T12:07:15;27.90;59.10
81895;DHT22;71358;45.642;13.758;2023-07-09T12:09:47;27.90;59.10
81895;DHT22;71358;45.642;13.758;2023-07-09T12:12:18;28.00;59.20
81895;DHT22;71358;45.642;13.758;2023-07-09T12:14:45;28.00;59.10
81895;DHT22;71358;45.642;13.758;2023-07-09T12:17:10;27.90;59.00
81895;DHT22;71358;45.642;13.758;2023-07-09T12:19:36;27.90;59.00
81895;DHT22;71358;45.642;13.758;2023-07-09T12:22:05;27.90;58.90
81895;DHT22;71358;45.642;13.758;2023-07-09T12:24:44;27.90;59.00
81895;DHT22;71358;45.642;13.758;2023-07-09T12:27:22;27.90;59.00
81895;DHT22;71358;45.642;13.758;2023-07-09T12:29:55;28.00;59.00
81895;DHT22;71358;45.642;13.758;2023-07-09T12:32:21;27.90;58.90
81895;DHT22;71358;45.642;13.758;2023-07-09T12:34:54;28.00;58.90
81895;DHT22;71358;45.642;13.758;2023-07-09T12:37:21;28.00;58.90
81895;DHT22;71358;45.642;13.758;2023-07-09T12:39:50;27.90;58.80
81895;DHT22;71358;45.642;13.758;2023-07-09T12:42:30;27.90;58.90
81895;DHT22;71358;45.642;13.758;2023-07-09T12:44:57;28.00;58.90
81895;DHT22;71358;45.642;13.758;2023-07-09T12:47:24;28.00;58.90
81895;DHT22;71358;45.642;13.758;2023-07-09T12:49:50;28.00;59.00
81895;DHT22;71358;45.642;13.758;2023-07-09T12:52:22;27.90;59.00
81895;DHT22;71358;45.642;13.758;2023-07-09T12:55:00;28.00;59.10
81895;DHT22;71358;45.642;13.758;2023-07-09T12:57:27;28.00;59.20
81895;DHT22;71358;45.642;13.758;2023-07-09T12:59:57;28.00;59.20
81895;DHT22;71358;45.642;13.758;2023-07-09T13:02:25;28.00;59.90
81895;DHT22;71358;45.642;13.758;2023-07-09T13:05:01;28.00;60.20
81895;DHT22;71358;45.642;13.758;2023-07-09T13:07:31;28.00;60.60
81895;DHT22;71358;45.642;13.758;2023-07-09T13:10:06;28.00;61.20
81895;DHT22;71358;45.642;13.758;2023-07-09T13:12:33;28.00;61.90
81895;DHT22;71358;45.642;13.758;2023-07-09T13:14:59;28.00;62.20
81895;DHT22;71358;45.642;13.758;2023-07-09T13:17:29;28.00;62.10
81895;DHT22;71358;45.642;13.758;2023-07-09T13:19:56;28.00;62.10
81895;DHT22;71358;45.642;13.758;2023-07-09T13:22:23;28.00;62.10
81895;DHT22;71358;45.642;13.758;2023-07-09T13:24:50;28.10;62.20
81895;DHT22;71358;45.642;13.758;2023-07-09T13:27:16;28.10;61.70
81895;DHT22;71358;45.642;13.758;2023-07-09T13:29:42;28.10;61.40
81895;DHT22;71358;45.642;13.758;2023-07-09T13:32:13;28.10;61.60
81895;DHT22;71358;45.642;13.758;2023-07-09T13:34:40;28.00;61.60
81895;DHT22;71358;45.642;13.758;2023-07-09T13:37:11;28.10;61.70
81895;DHT22;71358;45.642;13.758;2023-07-09T13:39:37;28.00;61.50
81895;DHT22;71358;45.642;13.758;2023-07-09T13:42:04;28.10;61.50
81895;DHT22;71358;45.642;13.758;2023-07-09T13:44:31;28.10;61.70
81895;DHT22;71358;45.642;13.758;2023-07-09T13:46:57;28.10;61.80
81895;DHT22;71358;45.642;13.758;2023-07-09T13:49:26;28.10;61.60
81895;DHT22;71358;45.642;13.758;2023-07-09T13:51:54;28.10;61.40
81895;DHT22;71358;45.642;13.758;2023-07-09T13:54:29;28.10;61.30
81895;DHT22;71358;45.642;13.758;2023-07-09T13:57:02;28.10;60.90
81895;DHT22;71358;45.642;13.758;2023-07-09T13:59:29;28.10;61.30
81895;DHT22;71358;45.642;13.758;2023-07-09T14:01:56;28.10;60.10
81895;DHT22;71358;45.642;13.758;2023-07-09T14:04:23;28.10;60.50
81895;DHT22;71358;45.642;13.758;2023-07-09T14:06:49;28.10;60.50
81895;DHT22;71358;45.642;13.758;2023-07-09T14:09:16;28.10;60.40
81895;DHT22;71358;45.642;13.758;2023-07-09T14:11:45;28.10;60.10
81895;DHT22;71358;45.642;13.758;2023-07-09T14:16:47;28.10;59.90
81895;DHT22;71358;45.642;13.758;2023-07-09T14:19:18;28.10;60.00
81895;DHT22;71358;45.642;13.758;2023-07-09T14:21:44;28.10;59.90
81895;DHT22;71358;45.642;13.758;2023-07-09T14:24:26;28.10;59.70
81895;DHT22;71358;45.642;13.758;2023-07-09T14:26:54;28.10;59.30
81895;DHT22;71358;45.642;13.758;2023-07-09T14:29:21;28.10;59.30
81895;DHT22;71358;45.642;13.758;2023-07-09T14:31:47;28.10;59.30
81895;DHT22;71358;45.642;13.758;2023-07-09T14:34:20;28.10;59.40
81895;DHT22;71358;45.642;13.758;2023-07-09T14:36:47;28.10;59.50
81895;DHT22;71358;45.642;13.758;2023-07-09T14:39:13;28.10;59.70
81895;DHT22;71358;45.642;13.758;2023-07-09T14:41:39;28.10;59.70
81895;DHT22;71358;45.642;13.758;2023-07-09T14:44:20;28.10;59.70
81895;DHT22;71358;45.642;13.758;2023-07-09T14:46:48;28.10;59.80
81895;DHT22;71358;45.642;13.758;2023-07-09T14:49:15;28.10;59.70
81895;DHT22;71358;45.642;13.758;2023-07-09T14:51:41;28.10;59.70
81895;DHT22;71358;45.642;13.758;2023-07-09T14:54:25;28.10;59.60
81895;DHT22;71358;45.642;13.758;2023-07-09T14:56:52;28.10;59.50
81895;DHT22;71358;45.642;13.758;2023-07-09T14:59:18;28.10;59.50
81895;DHT22;71358;45.642;13.758;2023-07-09T15:01:44;28.10;59.40
81895;DHT22;71358;45.642;13.758;2023-07-09T15:06:53;28.10;59.60
81895;DHT22;71358;45.642;13.758;2023-07-09T15:09:25;28.10;59.70
81895;DHT22;71358;45.642;13.758;2023-07-09T15:11:55;28.10;59.70
81895;DHT22;71358;45.642;13.758;2023-07-09T15:14:21;28.10;59.70
81895;DHT22;71358;45.642;13.758;2023-07-09T15:16:48;28.10;59.70
81895;DHT22;71358;45.642;13.758;2023-07-09T15:19:20;28.20;59.80
81895;DHT22;71358;45.642;13.758;2023-07-09T15:21:47;28.10;59.70
81895;DHT22;71358;45.642;13.758;2023-07-09T15:24:34;28.20;59.80
81895;DHT22;71358;45.642;13.758;2023-07-09T15:27:00;28.20;59.80
81895;DHT22;71358;45.642;13.758;2023-07-09T15:29:27;28.10;59.60
81895;DHT22;71358;45.642;13.758;2023-07-09T15:31:53;28.20;59.70
81895;DHT22;71358;45.642;13.758;2023-07-09T15:34:19;28.20;59.70
81895;DHT22;71358;45.642;13.758;2023-07-09T15:36:47;28.20;59.70
81895;DHT22;71358;45.642;13.758;2023-07-09T15:39:17;28.20;59.50
81895;DHT22;71358;45.642;13.758;2023-07-09T15:41:43;28.20;59.30
81895;DHT22;71358;45.642;13.758;2023-07-09T15:44:15;28.20;59.20
81895;DHT22;71358;45.642;13.758;2023-07-09T15:46:50;28.20;59.20
81895;DHT22;71358;45.642;13.758;2023-07-09T15:49:16;28.20;59.10
81895;DHT22;71358;45.642;13.758;2023-07-09T15:51:42;28.20;59.10
81895;DHT22;71358;45.642;13.758;2023-07-09T15:54:27;28.20;59.00
81895;DHT22;71358;45.642;13.758;2023-07-09T15:56:53;28.20;58.80
81895;DHT22;71358;45.642;13.758;2023-07-09T15:59:29;28.20;58.80
81895;DHT22;71358;45.642;13.758;2023-07-09T16:01:56;28.20;58.80
81895;DHT22;71358;45.642;13.758;2023-07-09T16:04:22;28.20;58.80
81895;DHT22;71358;45.642;13.758;2023-07-09T16:06:48;28.20;58.70
81895;DHT22;71358;45.642;13.758;2023-07-09T16:09:13;28.20;58.80
81895;DHT22;71358;45.642;13.758;2023-07-09T16:11:42;28.20;58.70
81895;DHT22;71358;45.642;13.758;2023-07-09T16:16:51;28.20;58.50